createdAt,value
2019-03-06T00:02:17.698Z,99.90
2019-03-06T00:05:04.420Z,99.90
2019-03-06T00:07:49.046Z,99.90
2019-03-06T00:10:33.653Z,99.90
2019-03-06T00:13:18.721Z,99.90
2019-03-06T00:16:03.942Z,99.90
2019-03-06T00:18:48.511Z,99.90
2019-03-06T00:21:33.641Z,99.90
2019-03-06T00:24:18.097Z,99.90
2019-03-06T00:27:03.207Z,99.90
2019-03-06T00:29:48.038Z,99.90
2019-03-06T00:32:32.625Z,99.90
2019-03-06T00:35:25.326Z,99.90
2019-03-06T00:38:10.096Z,99.90
2019-03-06T00:40:56.812Z,99.90
2019-03-06T00:43:41.751Z,99.90
2019-03-06T00:46:26.746Z,99.90
2019-03-06T00:49:11.807Z,99.90
2019-03-06T00:51:56.668Z,99.90
2019-03-06T00:54:41.114Z,99.90
2019-03-06T00:57:25.712Z,99.90
2019-03-06T01:00:26.437Z,99.90
2019-03-06T01:03:11.165Z,99.90
2019-03-06T01:05:55.625Z,99.90
2019-03-06T01:08:40.421Z,99.90
2019-03-06T01:11:25.636Z,99.90
2019-03-06T01:14:10.619Z,99.90
2019-03-06T01:16:55.867Z,99.90
2019-03-06T01:19:40.533Z,99.90
2019-03-06T01:22:25.240Z,99.90
2019-03-06T01:25:20.068Z,99.90
2019-03-06T01:28:04.847Z,99.90
2019-03-06T01:30:49.645Z,99.90
2019-03-06T01:33:38.695Z,99.90
2019-03-06T01:36:25.627Z,99.90
2019-03-06T01:39:12.205Z,99.90
2019-03-06T01:42:01.356Z,99.90
2019-03-06T01:44:47.760Z,99.90
2019-03-06T01:47:32.426Z,99.90
2019-03-06T01:50:16.870Z,99.90
2019-03-06T01:53:01.951Z,99.90
2019-03-06T01:55:46.697Z,99.90
2019-03-06T01:58:31.590Z,99.90
2019-03-06T02:01:16.962Z,99.90
2019-03-06T02:04:02.028Z,99.90
2019-03-06T02:06:47.107Z,99.90
2019-03-06T02:09:32.172Z,99.90
2019-03-06T02:12:17.686Z,99.90
2019-03-06T02:15:04.150Z,99.90
2019-03-06T02:17:48.985Z,99.90
2019-03-06T02:20:34.245Z,99.90
2019-03-06T02:23:19.303Z,99.90
2019-03-06T02:26:04.170Z,99.90
2019-03-06T02:28:48.895Z,99.90
2019-03-06T02:31:33.805Z,99.90
2019-03-06T02:34:18.863Z,99.90
2019-03-06T02:37:04.068Z,99.90
2019-03-06T02:39:49.182Z,99.90
2019-03-06T02:42:33.676Z,99.90
2019-03-06T02:45:19.597Z,99.90
2019-03-06T02:48:04.281Z,99.90
2019-03-06T02:50:49.008Z,99.90
2019-03-06T02:53:33.990Z,99.90
2019-03-06T02:56:19.034Z,99.90
2019-03-06T02:59:17.404Z,99.90
2019-03-06T03:02:04.520Z,99.90
2019-03-06T03:04:53.911Z,99.90
2019-03-06T03:07:39.322Z,99.90
2019-03-06T03:10:24.207Z,99.90
2019-03-06T03:13:09.346Z,99.90
2019-03-06T03:15:53.832Z,99.90
2019-03-06T03:18:38.591Z,99.90
2019-03-06T03:21:26.802Z,99.90
2019-03-06T03:24:09.978Z,99.90
2019-03-06T03:26:55.186Z,99.90
2019-03-06T03:29:39.708Z,99.90
2019-03-06T03:32:24.378Z,99.90
2019-03-06T03:35:09.461Z,99.90
2019-03-06T03:37:54.285Z,99.90
2019-03-06T03:40:38.831Z,99.90
2019-03-06T03:43:23.664Z,99.90
2019-03-06T03:46:08.332Z,99.90
2019-03-06T03:48:52.961Z,99.90
2019-03-06T03:51:37.393Z,99.90
2019-03-06T03:54:21.782Z,99.90
2019-03-06T03:57:06.541Z,99.90
2019-03-06T03:59:51.070Z,99.90
2019-03-06T04:02:36.274Z,99.90
2019-03-06T04:05:21.257Z,99.90
2019-03-06T04:08:06.144Z,99.90
2019-03-06T04:10:50.953Z,99.90
2019-03-06T04:13:35.706Z,99.90
2019-03-06T04:16:20.501Z,99.90
2019-03-06T04:19:05.100Z,99.90
2019-03-06T04:21:49.676Z,99.90
2019-03-06T04:24:34.230Z,99.90
2019-03-06T04:27:18.755Z,99.90
2019-03-06T04:30:07.122Z,99.90
2019-03-06T04:32:52.080Z,99.90
2019-03-06T04:35:36.567Z,99.90
2019-03-06T04:38:21.394Z,99.90
2019-03-06T04:41:06.302Z,99.90
2019-03-06T04:43:50.750Z,99.90
2019-03-06T04:46:35.300Z,99.90
2019-03-06T04:49:19.841Z,99.90
2019-03-06T04:52:04.490Z,99.90
2019-03-06T04:54:49.164Z,99.90
2019-03-06T04:57:33.725Z,99.90
2019-03-06T05:00:23.257Z,99.90
2019-03-06T05:03:08.509Z,99.90
2019-03-06T05:05:53.645Z,99.90
2019-03-06T05:08:38.277Z,99.90
2019-03-06T05:11:22.815Z,99.90
2019-03-06T05:14:07.257Z,99.90
2019-03-06T05:16:56.525Z,99.90
2019-03-06T05:19:41.829Z,99.90
2019-03-06T05:22:26.196Z,99.90
2019-03-06T05:25:10.987Z,99.90
2019-03-06T05:27:55.509Z,99.90
2019-03-06T05:30:40.107Z,99.90
2019-03-06T05:33:25.048Z,99.90
2019-03-06T05:36:31.417Z,99.90
2019-03-06T05:39:16.481Z,99.90
2019-03-06T05:42:01.059Z,99.90
2019-03-06T05:44:45.595Z,99.90
2019-03-06T05:47:30.114Z,99.90
2019-03-06T05:50:15.186Z,99.90
2019-03-06T05:53:00.298Z,99.90
2019-03-06T05:55:45.054Z,99.90
2019-03-06T05:58:29.906Z,99.90
2019-03-06T06:01:14.466Z,99.90
2019-03-06T06:03:59.082Z,99.90
2019-03-06T06:06:44.093Z,99.90
2019-03-06T06:09:28.589Z,99.90
2019-03-06T06:12:13.159Z,99.90
2019-03-06T06:14:58.084Z,99.90
2019-03-06T06:17:43.259Z,99.90
2019-03-06T06:20:28.271Z,99.90
2019-03-06T06:23:31.985Z,99.90
2019-03-06T06:26:16.495Z,99.90
2019-03-06T06:29:00.981Z,99.90
2019-03-06T06:31:45.588Z,99.90
2019-03-06T06:34:30.648Z,99.90
2019-03-06T06:37:15.276Z,99.90
2019-03-06T06:39:59.602Z,99.90
2019-03-06T06:42:44.546Z,99.90
2019-03-06T06:45:28.921Z,99.90
2019-03-06T06:48:15.855Z,99.90
2019-03-06T06:51:24.849Z,99.90
2019-03-06T06:54:13.326Z,99.90
2019-03-06T06:57:05.014Z,99.90
2019-03-06T07:00:08.629Z,99.90
2019-03-06T07:03:26.180Z,99.90
2019-03-06T07:06:15.604Z,99.90
2019-03-06T07:09:07.598Z,99.90
2019-03-06T07:11:59.560Z,99.90
2019-03-06T07:14:54.633Z,99.90
2019-03-06T07:17:43.829Z,99.90
2019-03-06T07:20:43.971Z,99.90
2019-03-06T07:23:30.432Z,99.90
2019-03-06T07:26:33.490Z,99.90
2019-03-06T07:29:36.152Z,99.90
2019-03-06T07:32:22.739Z,99.90
2019-03-06T07:35:44.800Z,99.90
2019-03-06T07:38:29.726Z,99.90
2019-03-06T07:41:16.228Z,99.90
2019-03-06T07:44:05.492Z,99.90
2019-03-06T07:46:51.845Z,99.90
2019-03-06T07:49:45.709Z,99.90
2019-03-06T07:52:41.180Z,99.90
2019-03-06T07:55:27.753Z,99.90
2019-03-06T07:58:41.935Z,99.90
2019-03-06T08:01:29.562Z,99.90
2019-03-06T08:04:14.772Z,99.90
2019-03-06T08:07:04.190Z,99.90
2019-03-06T08:09:48.935Z,99.90
2019-03-06T08:12:38.334Z,99.90
2019-03-06T08:15:25.432Z,99.90
2019-03-06T08:18:21.066Z,99.90
2019-03-06T08:21:07.529Z,99.90
2019-03-06T08:24:10.246Z,99.90
2019-03-06T08:26:55.576Z,99.90
2019-03-06T08:29:40.263Z,99.90
2019-03-06T08:32:26.734Z,99.90
2019-03-06T08:35:11.397Z,99.90
2019-03-06T08:37:55.989Z,99.90
2019-03-06T08:40:41.208Z,99.90
2019-03-06T08:43:26.238Z,99.90
2019-03-06T08:46:16.006Z,99.90
2019-03-06T08:49:07.997Z,99.90
2019-03-06T08:52:06.112Z,99.90
2019-03-06T08:54:53.138Z,99.90
2019-03-06T08:57:48.354Z,99.90
2019-03-06T09:00:51.235Z,99.90
2019-03-06T09:03:43.320Z,99.90
2019-03-06T09:06:47.741Z,99.30
2019-03-06T09:09:39.946Z,99.10
2019-03-06T09:12:29.855Z,98.30
2019-03-06T09:15:31.767Z,98.20
2019-03-06T09:18:29.995Z,98.30
2019-03-06T09:21:19.348Z,97.40
2019-03-06T09:24:15.115Z,97.00
2019-03-06T09:27:04.248Z,96.50
2019-03-06T09:29:53.456Z,96.20
2019-03-06T09:32:58.123Z,95.60
2019-03-06T09:35:53.519Z,95.50
2019-03-06T09:38:40.332Z,94.60
2019-03-06T09:41:27.495Z,94.30
2019-03-06T09:44:14.240Z,93.40
2019-03-06T09:47:16.985Z,93.70
2019-03-06T09:50:06.669Z,92.80
2019-03-06T09:52:53.274Z,92.40
2019-03-06T09:55:56.161Z,92.80
2019-03-06T09:58:45.803Z,91.80
2019-03-06T10:01:34.859Z,91.60
2019-03-06T10:04:24.074Z,92.00
2019-03-06T10:07:19.754Z,92.10
2019-03-06T10:10:08.928Z,91.80
2019-03-06T10:12:58.408Z,91.20
2019-03-06T10:15:45.506Z,91.90
2019-03-06T10:18:38.234Z,90.70
2019-03-06T10:21:22.867Z,90.30
2019-03-06T10:24:08.025Z,89.80
2019-03-06T10:26:55.290Z,90.10
2019-03-06T10:29:40.148Z,90.40
2019-03-06T10:32:25.457Z,89.50
2019-03-06T10:35:13.052Z,88.90
2019-03-06T10:37:58.169Z,88.30
2019-03-06T10:40:43.275Z,87.90
2019-03-06T10:43:28.607Z,87.90
2019-03-06T10:46:13.519Z,87.00
2019-03-06T10:48:58.668Z,85.90
2019-03-06T10:51:43.895Z,85.00
2019-03-06T10:54:28.934Z,83.90
2019-03-06T10:57:13.939Z,84.40
2019-03-06T10:59:58.899Z,83.30
2019-03-06T11:02:44.083Z,82.20
2019-03-06T11:05:33.640Z,80.50
2019-03-06T11:08:19.662Z,80.10
2019-03-06T11:11:04.968Z,80.70
2019-03-06T11:13:50.009Z,81.90
2019-03-06T11:16:37.216Z,81.70
2019-03-06T11:19:21.675Z,79.60
2019-03-06T11:22:06.358Z,79.80
2019-03-06T11:24:51.368Z,77.90
2019-03-06T11:27:36.422Z,77.90
2019-03-06T11:30:27.701Z,76.40
2019-03-06T11:33:12.896Z,76.80
2019-03-06T11:35:58.464Z,76.20
2019-03-06T11:38:44.374Z,76.00
2019-03-06T11:41:29.539Z,73.90
2019-03-06T11:44:14.663Z,73.90
2019-03-06T11:46:59.570Z,71.80
2019-03-06T11:49:44.928Z,70.10
2019-03-06T11:52:29.744Z,70.80
2019-03-06T11:55:15.494Z,70.30
2019-03-06T11:58:00.702Z,70.60
2019-03-06T12:00:46.569Z,70.50
2019-03-06T12:03:31.249Z,68.90
2019-03-06T12:06:16.300Z,69.30
2019-03-06T12:09:02.164Z,68.90
2019-03-06T12:11:47.383Z,67.10
2019-03-06T12:14:32.079Z,66.50
2019-03-06T12:17:17.519Z,67.10
2019-03-06T12:20:08.170Z,64.60
2019-03-06T12:22:51.809Z,64.30
2019-03-06T12:25:38.572Z,62.90
2019-03-06T12:28:23.541Z,62.20
2019-03-06T12:31:08.562Z,61.60
2019-03-06T12:33:53.210Z,61.40
2019-03-06T12:36:38.362Z,62.00
2019-03-06T12:39:23.464Z,62.30
2019-03-06T12:42:14.261Z,61.00
2019-03-06T12:44:54.964Z,60.40
2019-03-06T12:47:40.398Z,60.70
2019-03-06T12:50:31.838Z,59.70
2019-03-06T12:53:17.013Z,59.00
2019-03-06T12:56:02.355Z,59.40
2019-03-06T12:58:47.308Z,59.00
2019-03-06T13:01:32.602Z,58.50
2019-03-06T13:04:17.615Z,59.20
2019-03-06T13:07:02.173Z,59.80
2019-03-06T13:09:47.243Z,60.40
2019-03-06T13:12:32.395Z,59.10
2019-03-06T13:15:22.674Z,57.90
2019-03-06T13:18:07.624Z,57.30
2019-03-06T13:20:52.774Z,58.10
2019-03-06T13:23:37.922Z,58.10
2019-03-06T13:26:22.926Z,57.00
2019-03-06T13:29:08.062Z,56.60
2019-03-06T13:31:53.089Z,57.00
2019-03-06T13:34:38.302Z,57.60
2019-03-06T13:37:23.133Z,57.90
2019-03-06T13:40:07.843Z,59.20
2019-03-06T13:42:52.880Z,59.10
2019-03-06T13:45:38.024Z,59.60
2019-03-06T13:48:23.058Z,60.60
2019-03-06T13:51:08.323Z,60.50
2019-03-06T13:53:53.319Z,61.30
2019-03-06T13:56:38.585Z,61.40
2019-03-06T13:59:23.309Z,61.90
2019-03-06T14:02:08.210Z,61.80
2019-03-06T14:04:53.242Z,61.80
2019-03-06T14:07:38.358Z,61.50
2019-03-06T14:10:24.323Z,62.10
2019-03-06T14:13:09.883Z,61.70
2019-03-06T14:15:54.884Z,61.70
2019-03-06T14:18:40.084Z,62.20
2019-03-06T14:21:24.938Z,62.20
2019-03-06T14:24:09.918Z,62.20
2019-03-06T14:26:58.237Z,62.40
2019-03-06T14:29:43.245Z,63.00
2019-03-06T14:32:28.366Z,62.60
2019-03-06T14:35:13.575Z,62.30
2019-03-06T14:37:58.795Z,62.80
2019-03-06T14:40:44.920Z,63.10
2019-03-06T14:43:30.009Z,63.00
2019-03-06T14:46:16.766Z,63.70
2019-03-06T14:49:01.798Z,62.80
2019-03-06T14:51:46.810Z,63.00
2019-03-06T14:54:31.995Z,63.40
2019-03-06T14:57:17.069Z,64.20
2019-03-06T15:00:03.473Z,63.90
2019-03-06T15:02:48.242Z,64.20
2019-03-06T15:05:33.469Z,64.50
2019-03-06T15:08:18.292Z,64.40
2019-03-06T15:11:03.566Z,65.40
2019-03-06T15:13:48.619Z,65.90
2019-03-06T15:16:33.633Z,66.50
2019-03-06T15:19:18.223Z,65.10
2019-03-06T15:22:03.341Z,64.70
2019-03-06T15:24:48.211Z,64.60
2019-03-06T15:27:33.592Z,63.00
2019-03-06T15:30:18.619Z,62.00
2019-03-06T15:33:03.775Z,60.90
2019-03-06T15:35:48.940Z,61.10
2019-03-06T15:38:34.055Z,60.60
2019-03-06T15:41:21.340Z,59.30
2019-03-06T15:44:06.325Z,59.60
2019-03-06T15:46:51.333Z,59.80
2019-03-06T15:49:36.456Z,59.70
2019-03-06T15:52:20.988Z,59.40
2019-03-06T15:55:09.702Z,58.90
2019-03-06T15:57:54.868Z,58.80
2019-03-06T16:00:46.184Z,59.40
2019-03-06T16:03:26.394Z,58.50
2019-03-06T16:06:20.132Z,58.50
2019-03-06T16:08:58.548Z,58.10
2019-03-06T16:11:43.585Z,58.20
2019-03-06T16:14:28.657Z,57.90
2019-03-06T16:17:13.727Z,58.40
2019-03-06T16:19:59.024Z,59.00
2019-03-06T16:22:44.179Z,58.40
2019-03-06T16:25:36.425Z,58.40
2019-03-06T16:28:15.205Z,59.40
2019-03-06T16:31:00.184Z,60.50
2019-03-06T16:33:45.129Z,60.00
2019-03-06T16:36:30.248Z,60.50
2019-03-06T16:39:15.250Z,64.00
2019-03-06T16:42:00.455Z,64.40
2019-03-06T16:44:45.682Z,65.50
2019-03-06T16:47:30.416Z,66.30
2019-03-06T16:50:17.485Z,66.40
2019-03-06T16:53:02.414Z,66.10
2019-03-06T16:55:47.426Z,66.20
2019-03-06T16:58:32.398Z,64.80
2019-03-06T17:01:17.644Z,65.80
2019-03-06T17:04:04.570Z,64.40
2019-03-06T17:06:49.772Z,65.50
2019-03-06T17:09:34.800Z,65.90
2019-03-06T17:12:19.925Z,64.70
2019-03-06T17:15:07.051Z,63.70
2019-03-06T17:17:52.233Z,64.40
2019-03-06T17:20:37.255Z,63.60
2019-03-06T17:23:22.159Z,63.40
2019-03-06T17:26:07.259Z,64.00
2019-03-06T17:28:52.148Z,63.50
2019-03-06T17:31:36.914Z,62.50
2019-03-06T17:34:22.184Z,62.10
2019-03-06T17:37:07.122Z,61.60
2019-03-06T17:39:52.012Z,61.70
2019-03-06T17:42:37.246Z,61.40
2019-03-06T17:45:22.328Z,61.30
2019-03-06T17:48:08.586Z,61.20
2019-03-06T17:50:53.566Z,60.50
2019-03-06T17:53:38.558Z,60.50
2019-03-06T17:56:23.848Z,60.20
2019-03-06T17:59:08.869Z,60.10
2019-03-06T18:01:54.169Z,60.00
2019-03-06T18:04:39.101Z,59.80
2019-03-06T18:07:24.349Z,59.90
2019-03-06T18:10:16.630Z,59.80
2019-03-06T18:13:01.519Z,59.20
2019-03-06T18:15:46.352Z,58.70
2019-03-06T18:18:31.848Z,59.40
2019-03-06T18:21:16.794Z,59.40
2019-03-06T18:24:01.814Z,59.80
2019-03-06T18:26:46.734Z,59.80
2019-03-06T18:29:31.964Z,59.90
2019-03-06T18:32:17.013Z,59.70
2019-03-06T18:35:01.999Z,59.50
2019-03-06T18:37:47.201Z,59.30
2019-03-06T18:40:32.182Z,59.40
2019-03-06T18:43:17.401Z,59.20
2019-03-06T18:46:02.274Z,59.60
2019-03-06T18:48:47.535Z,59.30
2019-03-06T18:51:32.777Z,59.50
2019-03-06T18:54:17.836Z,59.20
2019-03-06T18:57:02.713Z,59.50
2019-03-06T18:59:47.842Z,59.80
2019-03-06T19:02:33.022Z,59.70
2019-03-06T19:05:19.456Z,60.00
2019-03-06T19:08:04.274Z,59.90
2019-03-06T19:10:49.639Z,59.90
2019-03-06T19:13:34.790Z,60.40
2019-03-06T19:16:19.945Z,60.10
2019-03-06T19:19:04.996Z,59.90
2019-03-06T19:21:50.098Z,60.00
2019-03-06T19:24:35.240Z,60.70
2019-03-06T19:27:20.267Z,60.30
2019-03-06T19:30:11.948Z,60.90
2019-03-06T19:32:56.718Z,61.00
2019-03-06T19:35:41.766Z,61.40
2019-03-06T19:38:27.301Z,61.30
2019-03-06T19:41:11.937Z,61.30
2019-03-06T19:43:56.965Z,61.90
2019-03-06T19:46:42.148Z,62.30
2019-03-06T19:49:27.782Z,61.80
2019-03-06T19:52:13.228Z,62.50
2019-03-06T19:54:58.262Z,64.60
2019-03-06T19:57:53.082Z,66.70
2019-03-06T20:00:38.742Z,66.90
2019-03-06T20:03:23.823Z,67.20
2019-03-06T20:06:08.833Z,67.30
2019-03-06T20:08:53.805Z,66.50
2019-03-06T20:11:38.825Z,67.30
2019-03-06T20:14:23.915Z,67.20
2019-03-06T20:17:08.987Z,67.70
2019-03-06T20:19:54.260Z,67.20
2019-03-06T20:22:39.591Z,68.60
2019-03-06T20:25:24.367Z,68.40
2019-03-06T20:28:09.574Z,69.60
2019-03-06T20:30:54.692Z,70.90
2019-03-06T20:33:40.308Z,71.90
2019-03-06T20:36:25.133Z,71.70
2019-03-06T20:39:10.757Z,72.80
2019-03-06T20:41:55.869Z,72.10
2019-03-06T20:44:41.350Z,71.10
2019-03-06T20:47:26.695Z,72.40
2019-03-06T20:50:13.686Z,72.30
2019-03-06T20:52:58.985Z,72.60
2019-03-06T20:55:43.941Z,72.00
2019-03-06T20:58:29.063Z,71.90
2019-03-06T21:01:14.183Z,71.50
2019-03-06T21:03:59.362Z,72.80
2019-03-06T21:06:44.417Z,72.60
2019-03-06T21:09:29.377Z,72.50
2019-03-06T21:12:14.679Z,73.00
2019-03-06T21:14:59.629Z,73.50
2019-03-06T21:17:44.897Z,72.50
2019-03-06T21:20:30.016Z,72.50
2019-03-06T21:23:14.950Z,72.30
2019-03-06T21:26:00.012Z,72.90
2019-03-06T21:28:44.939Z,73.30
2019-03-06T21:31:30.295Z,74.80
2019-03-06T21:34:15.285Z,74.70
2019-03-06T21:37:00.562Z,75.30
2019-03-06T21:39:45.373Z,76.20
2019-03-06T21:42:30.520Z,77.30
2019-03-06T21:45:15.784Z,78.10
2019-03-06T21:48:00.582Z,78.40
2019-03-06T21:50:45.445Z,78.40
2019-03-06T21:53:30.133Z,77.80
2019-03-06T21:56:15.062Z,79.20
2019-03-06T21:58:59.835Z,79.50
2019-03-06T22:01:44.583Z,80.10
2019-03-06T22:04:29.599Z,80.20
2019-03-06T22:07:14.729Z,80.90
2019-03-06T22:09:59.522Z,80.60
2019-03-06T22:12:44.153Z,80.10
2019-03-06T22:15:29.382Z,81.00
2019-03-06T22:18:14.051Z,81.30
2019-03-06T22:20:59.474Z,80.80
2019-03-06T22:23:44.342Z,81.20
2019-03-06T22:26:29.493Z,80.70
2019-03-06T22:29:14.538Z,80.60
2019-03-06T22:31:59.565Z,80.10
2019-03-06T22:34:44.000Z,80.10
2019-03-06T22:37:28.644Z,80.60
2019-03-06T22:40:17.806Z,79.90
2019-03-06T22:43:02.802Z,80.40
2019-03-06T22:45:47.487Z,80.60
2019-03-06T22:48:32.757Z,80.00
2019-03-06T22:51:17.814Z,80.60
2019-03-06T22:54:02.796Z,80.30
2019-03-06T22:56:47.733Z,79.40
2019-03-06T22:59:32.772Z,78.90
2019-03-06T23:02:20.279Z,81.00
2019-03-06T23:05:06.380Z,80.50
2019-03-06T23:07:51.654Z,81.50
2019-03-06T23:10:36.507Z,80.90
2019-03-06T23:13:21.074Z,81.40
2019-03-06T23:16:05.757Z,81.70
2019-03-06T23:18:50.820Z,80.90
2019-03-06T23:21:35.859Z,82.70
2019-03-06T23:24:20.738Z,83.30
2019-03-06T23:27:05.673Z,84.00
2019-03-06T23:29:50.257Z,84.20
2019-03-06T23:32:35.312Z,84.30
2019-03-06T23:35:20.537Z,84.50
2019-03-06T23:38:05.533Z,84.90
2019-03-06T23:40:50.223Z,84.30
2019-03-06T23:43:35.654Z,84.10
2019-03-06T23:46:20.348Z,84.20
2019-03-06T23:49:05.331Z,84.80
2019-03-06T23:51:52.019Z,84.80
2019-03-06T23:54:36.903Z,84.40
2019-03-06T23:57:22.036Z,84.00
